Mancos, CO (81328)

6:21 AM MST on February 07, 2016 (GMT -0700)
East Canyon | | Change Station
CLOSE
Current Station
Personal Weather Station
Location: Mancos, CO
Elevation: 7550 ft
Nearby Weather Stations

Elev 7550 ft 37.30 °N, 108.23 °W | Updated 9 minutes ago

Clear
Clear
35.0 °F
Feels Like 35 °F
N
0.0
Wind Variable Wind from NNE
Gusts 3.0 mph

Today
High -- | Low -- °F
--% Chance of Precip.
Yesterday
High -- | Low -- °F
Precip. -- in
Pressure 30.51 in
Visibility 10.0 miles
Clouds Clear
Windchill 35 °F
Dew Point 12 °F
Humidity 38%
Rainfall 0.00 in
Snow Depth Not available.
7:11 AM 5:43 PM
Waning Crescent, 2% visible
METAR KCEZ 071253Z AUTO 05008KT 10SM CLR M11/M14 A3040 RMK AO2 SLP331 T11111139
Pressure 30.51 in
Visibility 10.0 miles
Clouds Clear
Windchill 35 °F
Dew Point 12 °F
Humidity 38%
Rainfall 0.00 in
Snow Depth Not available.
7:11 AM 5:43 PM
Waning Crescent, 2% visible
METAR KCEZ 071253Z AUTO 05008KT 10SM CLR M11/M14 A3040 RMK AO2 SLP331 T11111139

10-Day Weather Forecast

Almanac

Astronomy

Feb. 07, 2016 Rise Set
Actual Time
Civil Twilight
Nautical Twilight
Astronomical Twilight
Moon
Length of Visible Light
Length of Day
Tomorrow will be .
, % of the Moon is Illuminated

Today's Extremes

State Highs State Lows

Community

WunderPhotos

Upload Photos

1,891,190 photos uploaded!

WunderBlog® & News

Nearby

Air Quality

  Air Quality AQ Index Pollutant
Not available.

Snow Depth

Station Depth Elevation

Earthquake Activity

City Distance Mag. Time & Date
Minimum magnitude displayed is 2.5.

Coastal Water Temperatures

Place Temperature

Stations

Nearby Weather Stations

Station Location Temp. Windchill Dew Point Humidity Wind Precip. Elev Updated Type
                   

Watches & Warnings

There are currently no watches in effect.